Lahaina, Hawaii
Current Conditions -  °F | °C
As of 2:54 AM on Tuesday 21 Oct 2014 (Local Time) from PHOG Reporting Station
Clear Clear  
Wind Chill: 70°   Ceiling: Unl
Heat Index: 70°   Visibility: 10mi
Dew Point: 68°   Wind: 8mph
Humidity: 93%   Direction: 140°SE
Pressure: 29.97"   Gusts: NA
Location:  20.88°N, 156.67°W
Report Text: PHOG 211254Z AUTO 14007KT 10SM CLR 21/20 A2997 RMK AO2 SLP154 T02110200 TSNO
Loading
Personal Weather Stations






























Interactive Weather Map
Tropical Storm Tracking
New forecast layout! Learn more

10-Day Weather Forecast

Advertisements
Track Severe Weather on mobile